Time;durP1;ratioP1;P1;durP2;ratioP2;P2;SDS_P1;SDS_P2;PMS_P1;PMS_P2;Temp;Humidity;BMP_temperature;BMP_pressure;BME280_temperature;BME280_humidity;BME280_pressure;Samples;Min_cycle;Max_cycle;Signal;HPM_P1;HPM_P2
2023/12/06 00:01:24;;;;;;;26.20;17.30;;;;;;;;;;5013154;28;20112;-71
2023/12/06 00:03:50;;;;;;;27.88;17.75;;;;;;;;;;5021371;28;20502;-71
2023/12/06 00:06:16;;;;;;;26.90;16.77;;;;;;;;;;5015781;28;20045;-71
2023/12/06 00:08:42;;;;;;;25.70;17.10;;;;;;;;;;5011781;28;20331;-72
2023/12/06 00:11:08;;;;;;;27.15;16.83;;;;;;;;;;5012266;28;20038;-72
2023/12/06 00:13:34;;;;;;;25.92;16.38;;;;;;;;;;5012260;28;20096;-72
2023/12/06 00:16:00;;;;;;;25.58;16.55;;;;;;;;;;4996773;28;20092;-71
2023/12/06 00:18:27;;;;;;;24.60;15.00;;;;;;;;;;5012490;28;20041;-71
2023/12/06 00:20:53;;;;;;;25.10;16.45;;;;;;;;;;5025563;28;20060;-71
2023/12/06 00:23:20;;;;;;;21.60;14.43;;;;;;;;;;4995938;28;20135;-71
2023/12/06 00:25:46;;;;;;;26.13;16.10;;;;;;;;;;5028891;28;20053;-71
2023/12/06 00:28:12;;;;;;;24.55;14.88;;;;;;;;;;5031880;28;20041;-71
2023/12/06 00:30:38;;;;;;;25.33;15.10;;;;;;;;;;5030909;28;20436;-71
2023/12/06 00:33:04;;;;;;;21.13;14.43;;;;;;;;;;5032124;28;20040;-71
2023/12/06 00:35:30;;;;;;;25.02;14.77;;;;;;;;;;5030955;28;20042;-71
2023/12/06 00:37:56;;;;;;;24.20;15.52;;;;;;;;;;5014652;28;20076;-72
2023/12/06 00:40:22;;;;;;;19.80;13.85;;;;;;;;;;5020262;28;20402;-71
2023/12/06 00:42:48;;;;;;;24.50;14.40;;;;;;;;;;4995941;28;20135;-71
2023/12/06 00:45:14;;;;;;;20.20;14.27;;;;;;;;;;5012751;28;20371;-71
2023/12/06 00:47:41;;;;;;;18.65;13.75;;;;;;;;;;5011967;28;20042;-71
2023/12/06 00:50:07;;;;;;;19.92;13.55;;;;;;;;;;5012010;28;20037;-71
2023/12/06 00:52:33;;;;;;;21.00;14.00;;;;;;;;;;5011566;28;20041;-71
2023/12/06 00:54:59;;;;;;;17.65;12.68;;;;;;;;;;5022826;28;20087;-71
2023/12/06 00:57:25;;;;;;;19.27;13.57;;;;;;;;;;5031322;28;20041;-71
2023/12/06 00:59:51;;;;;;;19.58;13.52;;;;;;;;;;5029013;28;20048;-71
2023/12/06 01:02:18;;;;;;;19.77;12.88;;;;;;;;;;5011458;28;20057;-71
2023/12/06 01:04:45;;;;;;;20.33;13.45;;;;;;;;;;5011867;28;20077;-71
2023/12/06 01:07:11;;;;;;;18.00;12.57;;;;;;;;;;5011596;28;20052;-71
2023/12/06 01:09:37;;;;;;;21.10;13.98;;;;;;;;;;5015572;28;20501;-71
2023/12/06 01:12:03;;;;;;;20.33;12.60;;;;;;;;;;4999639;28;20091;-71
2023/12/06 01:14:30;;;;;;;18.05;12.70;;;;;;;;;;5015461;28;20037;-72
2023/12/06 01:16:56;;;;;;;20.02;13.07;;;;;;;;;;5015884;28;20112;-72
2023/12/06 01:19:23;;;;;;;19.23;13.43;;;;;;;;;;4999076;28;20057;-71
2023/12/06 01:21:49;;;;;;;17.85;12.15;;;;;;;;;;5030089;28;20037;-71
2023/12/06 01:24:15;;;;;;;17.92;12.80;;;;;;;;;;5034891;28;20069;-71
2023/12/06 01:26:41;;;;;;;15.93;12.25;;;;;;;;;;5035106;28;20049;-71
2023/12/06 01:29:08;;;;;;;19.67;12.63;;;;;;;;;;5034720;28;20128;-71
2023/12/06 01:31:34;;;;;;;19.80;12.75;;;;;;;;;;5033389;28;20049;-71
2023/12/06 01:34:00;;;;;;;21.45;12.73;;;;;;;;;;5035284;28;20076;-71
2023/12/06 01:36:27;;;;;;;21.40;11.48;;;;;;;;;;5004214;28;20156;-71
2023/12/06 01:38:53;;;;;;;14.57;11.45;;;;;;;;;;5015373;28;20103;-71
2023/12/06 01:41:19;;;;;;;21.00;12.23;;;;;;;;;;5015240;28;20053;-71
2023/12/06 01:43:45;;;;;;;16.27;11.57;;;;;;;;;;5017639;28;20125;-71
2023/12/06 01:46:11;;;;;;;16.45;11.35;;;;;;;;;;5010667;28;20467;-71
2023/12/06 01:48:38;;;;;;;16.05;12.02;;;2.30;99.90;;;;;;5023158;28;20041;-71
2023/12/06 01:51:04;;;;;;;16.10;11.57;;;;;;;;;;5002135;28;20037;-71
2023/12/06 01:53:31;;;;;;;16.33;11.60;;;;;;;;;;5029763;28;20122;-71
2023/12/06 01:55:57;;;;;;;15.45;11.50;;;;;;;;;;5013494;28;20026;-71
2023/12/06 01:58:24;;;;;;;18.23;11.77;;;;;;;;;;5028297;28;20044;-71
2023/12/06 02:00:50;;;;;;;17.00;12.95;;;;;;;;;;5005212;28;20691;-72
2023/12/06 02:03:16;;;;;;;19.80;11.43;;;;;;;;;;5032372;28;20050;-72
2023/12/06 02:05:43;;;;;;;15.25;10.70;;;2.30;99.90;;;;;;5022555;28;20045;-71
2023/12/06 02:08:09;;;;;;;15.70;11.18;;;;;;;;;;5032143;28;20045;-72
2023/12/06 02:10:35;;;;;;;14.50;10.48;;;;;;;;;;5023115;28;20505;-71
2023/12/06 02:13:01;;;;;;;14.80;10.52;;;;;;;;;;5033332;28;20368;-72
2023/12/06 02:15:27;;;;;;;13.90;11.10;;;;;;;;;;5022814;28;20477;-71
2023/12/06 02:17:54;;;;;;;16.55;11.05;;;2.50;99.90;;;;;;5032825;28;20033;-71
2023/12/06 02:20:20;;;;;;;15.85;10.48;;;;;;;;;;5032343;28;20381;-71
2023/12/06 02:22:48;;;;;;;12.45;9.77;;;2.70;99.90;;;;;;5033507;28;20046;-71
2023/12/06 02:25:17;;;;;;;14.30;10.00;;;;;;;;;;5015788;28;20064;-71
2023/12/06 02:27:44;;;;;;;14.18;10.45;;;;;;;;;;5012077;28;20104;-71
2023/12/06 02:30:10;;;;;;;11.90;9.90;;;;;;;;;;5013819;28;20050;-71
2023/12/06 02:32:37;;;;;;;12.30;9.43;;;;;;;;;;4997348;28;20124;-71
2023/12/06 02:35:04;;;;;;;13.77;9.88;;;;;;;;;;5013897;28;20050;-71
2023/12/06 02:37:30;;;;;;;14.57;9.02;;;;;;;;;;5031321;28;20431;-71
2023/12/06 02:39:57;;;;;;;12.52;9.25;;;;;;;;;;5033555;28;20045;-72
2023/12/06 02:42:23;;;;;;;14.98;9.32;;;;;;;;;;5033332;28;20127;-72
2023/12/06 02:44:49;;;;;;;14.90;8.85;;;;;;;;;;5034159;28;20045;-71
2023/12/06 02:47:15;;;;;;;11.38;8.38;;;;;;;;;;5033564;28;20089;-71
2023/12/06 02:49:41;;;;;;;14.27;8.63;;;;;;;;;;5016938;28;20050;-72
2023/12/06 02:52:07;;;;;;;12.70;9.07;;;;;;;;;;5033184;28;20077;-72
2023/12/06 02:54:33;;;;;;;11.30;8.32;;;;;;;;;;5033178;28;20041;-72
2023/12/06 02:56:59;;;;;;;12.25;9.07;;;;;;;;;;5033062;28;20037;-72
2023/12/06 02:59:26;;;;;;;11.43;8.43;;;;;;;;;;5033003;28;20505;-72
2023/12/06 03:01:52;;;;;;;12.63;8.55;;;;;;;;;;5032950;28;20045;-72
2023/12/06 03:04:18;;;;;;;12.63;8.40;;;;;;;;;;5016909;28;20095;-71
2023/12/06 03:06:44;;;;;;;13.32;8.25;;;;;;;;;;5033122;28;20042;-72
2023/12/06 03:09:10;;;;;;;16.52;8.25;;;;;;;;;;5033143;28;20034;-72
2023/12/06 03:11:36;;;;;;;13.48;8.18;;;;;;;;;;5016268;28;20505;-73
2023/12/06 03:14:02;;;;;;;11.77;8.38;;;;;;;;;;5015358;28;20053;-72
2023/12/06 03:16:28;;;;;;;12.85;8.10;;;;;;;;;;5012876;28;20040;-72
2023/12/06 03:18:54;;;;;;;11.32;7.97;;;;;;;;;;5014078;28;20128;-72
2023/12/06 03:21:20;;;;;;;10.15;7.95;;;;;;;;;;5012378;28;20049;-72
2023/12/06 03:23:46;;;;;;;12.77;7.88;;;;;;;;;;4999766;28;20041;-72
2023/12/06 03:26:12;;;;;;;13.23;7.80;;;;;;;;;;5031117;28;20099;-72
2023/12/06 03:28:38;;;;;;;10.20;8.20;;;;;;;;;;5025821;28;20049;-72
2023/12/06 03:31:04;;;;;;;10.93;7.50;;;;;;;;;;5031009;28;20460;-72
2023/12/06 03:33:30;;;;;;;12.00;8.30;;;;;;;;;;5029906;28;20080;-72
2023/12/06 03:35:56;;;;;;;11.75;7.85;;;;;;;;;;5015243;28;20041;-72
2023/12/06 03:38:22;;;;;;;11.68;8.43;;;;;;;;;;5023048;28;20038;-72
2023/12/06 03:40:49;;;;;;;13.82;8.68;;;;;;;;;;5012673;28;20409;-72
2023/12/06 03:43:15;;;;;;;10.57;8.50;;;;;;;;;;5018368;28;20091;-72
2023/12/06 03:45:41;;;;;;;12.13;9.30;;;;;;;;;;5032029;28;20044;-72
2023/12/06 03:48:07;;;;;;;10.98;8.93;;;;;;;;;;5014392;28;20041;-72
2023/12/06 03:50:33;;;;;;;10.63;9.10;;;;;;;;;;5012657;28;20394;-72
2023/12/06 03:52:59;;;;;;;12.90;8.52;;;;;;;;;;5024483;28;20117;-72
2023/12/06 03:55:25;;;;;;;15.02;8.65;;;;;;;;;;5012319;28;20038;-72
2023/12/06 03:57:51;;;;;;;11.98;9.02;;;;;;;;;;5021590;28;20037;-72
2023/12/06 04:00:18;;;;;;;14.02;9.50;;;;;;;;;;5032169;28;20037;-72
2023/12/06 04:02:44;;;;;;;16.77;9.30;;;;;;;;;;5032196;28;20051;-72
2023/12/06 04:05:10;;;;;;;14.02;9.23;;;;;;;;;;5032236;28;20049;-72
2023/12/06 04:07:36;;;;;;;13.13;10.18;;;;;;;;;;5031883;28;20046;-72
2023/12/06 04:10:02;;;;;;;12.73;9.10;;;;;;;;;;5022470;28;20215;-72
2023/12/06 04:12:28;;;;;;;14.40;10.13;;;;;;;;;;5011944;28;20099;-72
2023/12/06 04:14:55;;;;;;;12.77;10.43;;;;;;;;;;5013350;28;20049;-72
2023/12/06 04:17:21;;;;;;;16.35;10.20;;;;;;;;;;4996021;28;20034;-72
2023/12/06 04:19:47;;;;;;;13.23;9.60;;;;;;;;;;5012304;28;20050;-72
2023/12/06 04:22:13;;;;;;;19.45;9.77;;;;;;;;;;4995693;28;20041;-72
2023/12/06 04:24:39;;;;;;;15.55;9.57;;;;;;;;;;5012000;28;20077;-73
2023/12/06 04:27:06;;;;;;;13.65;9.80;;;;;;;;;;5012175;28;20439;-72
2023/12/06 04:29:32;;;;;;;12.23;9.50;;;;;;;;;;4995706;28;20049;-72
2023/12/06 04:31:58;;;;;;;16.00;10.18;;;;;;;;;;5011752;28;20045;-72
2023/12/06 04:34:24;;;;;;;13.07;9.18;;;;;;;;;;5011991;28;20053;-73
2023/12/06 04:36:50;;;;;;;16.08;8.98;;;;;;;;;;5011754;28;20045;-72
2023/12/06 04:39:16;;;;;;;16.67;9.02;;;;;;;;;;5011829;28;20038;-72
2023/12/06 04:41:42;;;;;;;11.98;8.30;;;;;;;;;;5011554;28;20383;-73
2023/12/06 04:44:09;;;;;;;14.93;9.55;;;;;;;;;;5011630;28;20053;-73
2023/12/06 04:46:35;;;;;;;19.02;10.00;;;;;;;;;;5004935;28;20362;-73
2023/12/06 04:49:01;;;;;;;17.60;8.90;;;;;;;;;;5031354;28;20045;-73
2023/12/06 04:51:27;;;;;;;12.77;8.88;;;;;;;;;;5031183;28;20038;-72
2023/12/06 04:53:54;;;;;;;13.35;8.73;;;;;;;;;;5030828;28;20037;-72
2023/12/06 04:56:21;;;;;;;11.55;8.90;;;;;;;;;;5017353;28;20046;-72
2023/12/06 04:58:47;;;;;;;14.63;8.95;;;;;;;;;;5025430;28;20042;-72
2023/12/06 05:01:13;;;;;;;15.05;9.07;;;;;;;;;;5016845;28;20152;-72
2023/12/06 05:03:39;;;;;;;14.05;8.75;;;;;;;;;;5003971;28;20046;-73
2023/12/06 05:06:05;;;;;;;13.57;8.75;;;;;;;;;;5015003;28;20059;-72
2023/12/06 05:08:31;;;;;;;14.30;8.77;;;;;;;;;;5017939;28;20125;-72
2023/12/06 05:10:57;;;;;;;12.27;9.07;;;;;;;;;;5011480;28;20096;-73
2023/12/06 05:13:23;;;;;;;13.73;8.93;;;;;;;;;;5011475;28;20180;-73
2023/12/06 05:15:49;;;;;;;12.82;9.07;;;;;;;;;;4995519;28;20390;-73
2023/12/06 05:18:15;;;;;;;18.95;9.43;;;;;;;;;;5011639;28;20125;-72
2023/12/06 05:20:41;;;;;;;13.38;9.18;;;;;;;;;;5024614;28;20049;-72
2023/12/06 05:23:07;;;;;;;11.13;8.30;;;;;;;;;;5031376;28;20425;-72
2023/12/06 05:25:34;;;;;;;13.48;9.40;;;;;;;;;;5031308;28;20095;-73
2023/12/06 05:28:00;;;;;;;15.13;9.73;;;;;;;;;;5014929;28;20085;-72
2023/12/06 05:30:26;;;;;;;13.50;8.85;;;;;;;;;;5030878;28;20041;-72
2023/12/06 05:32:52;;;;;;;14.48;9.00;;;;;;;;;;5031101;28;20080;-72
2023/12/06 05:35:18;;;;;;;14.88;9.43;;;;;;;;;;5031025;28;20049;-72
2023/12/06 05:37:44;;;;;;;12.23;9.18;;;;;;;;;;5031276;28;20049;-72
2023/12/06 05:40:11;;;;;;;14.85;9.15;;;;;;;;;;4998096;28;20044;-72
2023/12/06 05:42:37;;;;;;;14.30;8.77;;;;;;;;;;5031048;28;20486;-72
2023/12/06 05:45:05;;;;;;;15.93;10.82;;;;;;;;;;5014599;28;20049;-73
2023/12/06 05:47:31;;;;;;;13.68;9.70;;;;;;;;;;5032118;28;20049;-73
2023/12/06 05:49:57;;;;;;;13.10;9.63;;;;;;;;;;5031018;28;20037;-73
2023/12/06 05:52:23;;;;;;;17.27;9.68;;;;;;;;;;5030827;28;20547;-73
2023/12/06 05:54:49;;;;;;;19.88;10.70;;;;;;;;;;5033465;28;20041;-73
2023/12/06 05:57:15;;;;;;;15.85;10.18;;;;;;;;;;5020647;28;20038;-73
2023/12/06 05:59:41;;;;;;;16.77;10.15;;;;;;;;;;5014845;28;20107;-72
2023/12/06 06:02:07;;;;;;;13.93;9.75;;;;;;;;;;4998363;28;20065;-72
2023/12/06 06:04:33;;;;;;;18.38;9.68;;;;;;;;;;5005330;28;20481;-72
2023/12/06 06:06:59;;;;;;;15.85;9.43;;;;;;;;;;5020315;28;20038;-72
2023/12/06 06:09:25;;;;;;;17.20;9.88;;;;;;;;;;5033753;28;20080;-72
2023/12/06 06:11:51;;;;;;;14.65;9.27;;;;;;;;;;5016699;28;20452;-72
2023/12/06 06:14:18;;;;;;;17.17;9.30;;;;;;;;;;5026693;28;20073;-72
2023/12/06 06:16:44;;;;;;;15.27;9.27;;;;;;;;;;4998034;28;20081;-72
2023/12/06 06:19:10;;;;;;;12.35;8.63;;;;;;;;;;5028481;28;20083;-73
2023/12/06 06:21:36;;;;;;;15.32;8.75;;;;;;;;;;5015777;28;20049;-72
2023/12/06 06:24:02;;;;;;;14.15;8.98;;;;;;;;;;5022575;28;20048;-72
2023/12/06 06:26:28;;;;;;;14.85;9.45;;;;;;;;;;5033698;28;20057;-72
2023/12/06 06:28:54;;;;;;;14.10;9.05;;;;;;;;;;5002510;28;20486;-72
2023/12/06 06:31:20;;;;;;;12.90;8.70;;;;;;;;;;5014004;28;20146;-72
2023/12/06 06:33:46;;;;;;;12.98;8.40;;;;;;;;;;4997622;28;20042;-72
2023/12/06 06:36:12;;;;;;;16.00;9.32;;;;;;;;;;5013892;28;20494;-72
2023/12/06 06:38:38;;;;;;;12.52;8.30;;;;;;;;;;5013783;28;20038;-73
2023/12/06 06:41:04;;;;;;;15.65;9.18;;;;;;;;;;5028679;28;20053;-73
2023/12/06 06:43:30;;;;;;;14.38;9.10;;;;;;;;;;5033478;28;20501;-73
2023/12/06 06:45:56;;;;;;;14.85;9.30;;;;;;;;;;5033385;28;20124;-74
2023/12/06 06:48:22;;;;;;;13.25;8.70;;;;;;;;;;5033446;28;20053;-74
2023/12/06 06:50:49;;;;;;;13.48;9.85;;;;;;;;;;5017165;28;20120;-73
2023/12/06 06:53:15;;;;;;;14.23;9.38;;;;;;;;;;5033334;28;20047;-74
2023/12/06 06:55:41;;;;;;;13.25;8.98;;;;;;;;;;5016849;28;20041;-73
2023/12/06 06:58:07;;;;;;;12.55;9.00;;;;;;;;;;5016752;28;20068;-73
2023/12/06 07:00:33;;;;;;;16.63;9.65;;;;;;;;;;5033415;28;20111;-73
2023/12/06 07:02:59;;;;;;;16.50;10.40;;;;;;;;;;5021603;28;20037;-73
2023/12/06 07:05:25;;;;;;;19.25;10.05;;;;;;;;;;5015156;28;20037;-73
2023/12/06 07:07:51;;;;;;;15.32;9.52;;;;;;;;;;5011279;28;20115;-73
2023/12/06 07:10:17;;;;;;;16.92;10.57;;;;;;;;;;5013530;28;20038;-73
2023/12/06 07:12:43;;;;;;;13.63;9.13;;;;;;;;;;5013529;28;20049;-74
2023/12/06 07:15:14;;;;;;;16.52;9.07;;;;;;;;;;5013757;28;20544;-73
2023/12/06 07:17:44;;;;;;;14.43;9.68;;;;;;;;;;5013375;28;20037;-73
2023/12/06 07:20:13;;;;;;;17.30;9.77;;;;;;;;;;5021390;28;20055;-73
2023/12/06 07:22:40;;;;;;;13.70;8.85;;;;;;;;;;5032861;28;20496;-73
2023/12/06 07:25:07;;;;;;;12.48;8.77;;;;;;;;;;5032815;28;20129;-73
2023/12/06 07:27:33;;;;;;;12.68;8.32;;;;;;;;;;5016411;28;20053;-71
2023/12/06 07:29:59;;;;;;;11.57;8.07;;;;;;;;;;5019372;28;20037;-73
2023/12/06 07:32:25;;;;;;;13.77;8.85;;;;;;;;;;5022994;28;20034;-73
2023/12/06 07:34:51;;;;;;;12.82;8.43;;;;;;;;;;4996687;28;20038;-74
2023/12/06 07:37:17;;;;;;;14.85;10.10;;;;;;;;;;5022692;28;20037;-74
2023/12/06 07:39:43;;;;;;;12.43;9.20;;;;;;;;;;5032487;28;20362;-74
2023/12/06 07:42:09;;;;;;;15.60;9.45;;;;;;;;;;5032365;28;20061;-74
2023/12/06 07:44:35;;;;;;;16.08;9.02;;;;;;;;;;5032753;28;20052;-74
2023/12/06 07:47:02;;;;;;;14.98;8.77;;;;;;;;;;5032504;28;20041;-73
2023/12/06 07:49:28;;;;;;;14.30;8.50;;;;;;;;;;5025716;28;20052;-73
2023/12/06 07:51:55;;;;;;;15.82;8.98;;;;;;;;;;5009870;28;20137;-73
2023/12/06 07:54:21;;;;;;;13.68;9.27;;;;;;;;;;5031578;28;20048;-73
2023/12/06 07:56:47;;;;;;;13.30;8.32;;;;;;;;;;5012276;28;20045;-73
2023/12/06 07:59:13;;;;;;;11.60;8.40;;;;;;;;;;5012316;28;20049;-73
2023/12/06 08:01:39;;;;;;;10.50;8.65;;;;;;;;;;5012300;28;20454;-73
2023/12/06 08:04:05;;;;;;;11.73;8.32;;;;;;;;;;5012491;28;20046;-73
2023/12/06 08:06:32;;;;;;;13.70;8.48;;;;;;;;;;5013233;28;20049;-73
2023/12/06 08:08:58;;;;;;;18.77;9.85;;;;;;;;;;5026948;28;20050;-74
2023/12/06 08:11:25;;;;;;;17.58;9.13;;;;;;;;;;5008243;28;20037;-74
2023/12/06 08:13:52;;;;;;;11.35;8.30;;;;;;;;;;5021557;28;20436;-74
2023/12/06 08:16:18;;;;;;;12.07;8.88;;;;;;;;;;5018845;28;20038;-74
2023/12/06 08:18:44;;;;;;;14.43;9.07;;;;;;;;;;5026815;28;20041;-74
2023/12/06 08:21:10;;;;;;;15.88;9.63;;;;;;;;;;5017705;28;20045;-74
2023/12/06 08:23:36;;;;;;;16.13;9.63;;;;;;;;;;5017379;28;20516;-74
2023/12/06 08:26:06;;;;;;;13.27;8.80;;;;;;;;;;5021205;28;20054;-74
2023/12/06 08:28:33;;;;;;;10.85;8.18;;;;;;;;;;5016059;28;20042;-74
2023/12/06 08:30:59;;;;;;;14.02;8.88;;;;;;;;;;4999217;28;20077;-73
2023/12/06 08:33:25;;;;;;;14.38;8.95;;;;;;;;;;5022461;28;20378;-70
2023/12/06 08:35:51;;;;;;;16.17;9.10;;;;;;;;;;5012094;28;20040;-73
2023/12/06 08:38:17;;;;;;;13.60;8.85;;;;;;;;;;4979643;28;20183;-73
2023/12/06 08:40:44;;;;;;;12.77;7.68;;;;;;;;;;5011883;28;20406;-73
2023/12/06 08:43:10;;;;;;;12.55;7.80;;;;;;;;;;5011810;28;20050;-74
2023/12/06 08:45:36;;;;;;;15.18;8.10;;;;;;;;;;5011800;28;20506;-74
2023/12/06 08:48:02;;;;;;;13.85;8.18;;;;;;;;;;5011930;28;20069;-73
2023/12/06 08:50:28;;;;;;;12.77;7.95;;;;;;;;;;5012636;28;20046;-73
2023/12/06 08:52:54;;;;;;;10.52;7.93;;;;;;;;;;5015078;28;20075;-73
2023/12/06 08:55:20;;;;;;;11.18;8.10;;;;;;;;;;5031599;28;20077;-74
2023/12/06 08:57:47;;;;;;;11.55;7.38;;;;;;;;;;5031719;28;20401;-73
2023/12/06 09:00:13;;;;;;;11.00;6.97;;;;;;;;;;5031379;28;20100;-74
2023/12/06 09:02:42;;;;;;;10.20;6.95;;;;;;;;;;5031713;28;20044;-74
2023/12/06 09:05:12;;;;;;;12.68;6.80;;;;;;;;;;5031593;28;20051;-73
2023/12/06 09:07:38;;;;;;;9.38;6.53;;;;;;;;;;5031612;28;20041;-73
2023/12/06 09:10:05;;;;;;;15.13;7.25;;;;;;;;;;5015208;28;20370;-71
2023/12/06 09:12:31;;;;;;;11.13;6.45;;;;;;;;;;5031137;28;20041;-71
2023/12/06 09:14:57;;;;;;;10.23;6.75;;;;;;;;;;5014935;28;20045;-71
2023/12/06 09:17:23;;;;;;;9.80;6.47;;;;;;;;;;5014725;28;20109;-71
2023/12/06 09:19:51;;;;;;;9.98;6.80;;;;;;;;;;5031608;28;20076;-71
2023/12/06 09:22:17;;;;;;;11.15;6.38;;;;;;;;;;5031141;28;20049;-71
2023/12/06 09:24:44;;;;;;;12.18;6.78;;;3.90;99.90;;;;;;5031347;28;20431;-71
2023/12/06 09:27:10;;;;;;;11.20;7.18;;;;;;;;;;5031015;28;20045;-71
2023/12/06 09:29:36;;;;;;;9.68;6.80;;;;;;;;;;5016927;28;20057;-71
2023/12/06 09:32:02;;;;;;;9.48;6.88;;;;;;;;;;5034762;28;20042;-71
2023/12/06 09:34:28;;;;;;;9.18;6.85;;;;;;;;;;5035042;28;20056;-71
2023/12/06 09:36:54;;;;;;;12.50;6.80;;;;;;;;;;5018578;28;20037;-71
2023/12/06 09:39:20;;;;;;;12.63;6.82;;;;;;;;;;5018172;28;20052;-71
2023/12/06 09:41:47;;;;;;;11.30;6.93;;;;;;;;;;5018279;28;20057;-71
2023/12/06 09:44:15;;;;;;;8.60;6.95;;;4.10;99.90;;;;;;5034320;28;20103;-72
2023/12/06 09:46:42;;;;;;;9.93;6.45;;;4.00;99.90;;;;;;5034559;28;20129;-72
2023/12/06 09:49:09;;;;;;;8.98;6.47;;;;;;;;;;5034579;28;20045;-72
2023/12/06 09:51:35;;;;;;;13.60;6.95;;;;;;;;;;5034379;28;20041;-71
2023/12/06 09:54:01;;;;;;;11.95;6.60;;;;;;;;;;5034499;28;20075;-72
2023/12/06 09:56:27;;;;;;;9.13;6.60;;;;;;;;;;5034563;28;20144;-72
2023/12/06 09:58:53;;;;;;;10.65;6.93;;;;;;;;;;5034449;28;20041;-72
2023/12/06 10:01:19;;;;;;;13.75;7.25;;;;;;;;;;5034252;28;20444;-71
2023/12/06 10:03:46;;;;;;;11.18;6.90;;;;;;;;;;5034207;28;20046;-71
2023/12/06 10:06:12;;;;;;;12.13;6.95;;;;;;;;;;5001630;28;20081;-71
2023/12/06 10:08:38;;;;;;;9.43;6.78;;;;;;;;;;5034347;28;20045;-71
2023/12/06 10:11:05;;;;;;;11.90;6.93;;;;;;;;;;5033940;28;20087;-71
2023/12/06 10:13:35;;;;;;;9.70;7.43;;;;;;;;;;5017866;28;20042;-71
2023/12/06 10:16:01;;;;;;;13.82;7.60;;;;;;;;;;5034015;28;20068;-73
2023/12/06 10:18:27;;;;;;;9.30;7.10;;;;;;;;;;5033913;28;20041;-71
2023/12/06 10:20:54;;;;;;;11.48;7.50;;;;;;;;;;5033850;28;20049;-71
2023/12/06 10:23:21;;;;;;;11.85;7.50;;;;;;;;;;5033813;28;20049;-71
2023/12/06 10:25:47;;;;;;;13.05;7.38;;;;;;;;;;5017609;28;20049;-71
2023/12/06 10:28:14;;;;;;;11.15;7.40;;;;;;;;;;5034160;28;20444;-71
2023/12/06 10:30:40;;;;;;;12.30;7.65;;;;;;;;;;5033491;28;20099;-71
2023/12/06 10:33:06;;;;;;;16.63;8.10;;;;;;;;;;5033719;28;20536;-70
2023/12/06 10:35:35;;;;;;;9.98;7.13;;;;;;;;;;5033700;28;20173;-70
2023/12/06 10:38:02;;;;;;;10.07;6.65;;;3.90;99.90;;;;;;5033648;28;20043;-70
2023/12/06 10:40:29;;;;;;;10.40;7.03;;;;;;;;;;5027085;28;20030;-69
2023/12/06 10:43:09;;;;;;;9.07;6.60;;;;;;;;;;5028894;28;20052;-69
2023/12/06 10:45:37;;;;;;;9.82;6.82;;;4.10;99.90;;;;;;5022663;28;20049;-69
2023/12/06 10:48:05;;;;;;;11.68;6.88;;;;;;;;;;5024913;28;20053;-69
2023/12/06 10:50:32;;;;;;;8.43;6.40;;;;;;;;;;5023089;28;21194;-69
2023/12/06 10:53:01;;;;;;;10.88;6.60;;;;;;;;;;5025550;28;20047;-70
2023/12/06 10:55:30;;;;;;;11.95;6.70;;;4.00;99.90;;;;;;5018066;28;20037;-69
2023/12/06 10:57:58;;;;;;;10.05;6.85;;;;;;;;;;5018810;28;20069;-71
2023/12/06 11:00:26;;;;;;;9.32;6.43;;;;;;;;;;5021165;28;20044;-69
2023/12/06 11:02:52;;;;;;;10.25;7.07;;;;;;;;;;5002718;28;20076;-70
2023/12/06 11:05:20;;;;;;;11.60;6.93;;;4.20;99.90;;;;;;5025150;28;20042;-69
2023/12/06 11:08:02;;;;;;;11.07;7.03;;;4.10;99.90;;;;;;5001377;28;20042;-70
2023/12/06 11:10:40;;;;;;;10.55;6.90;;;;;;;;;;5018871;28;20065;-71
2023/12/06 11:13:09;;;;;;;10.30;6.80;;;;;;;;;;5023815;28;20508;-70
2023/12/06 11:16:33;;;;;;;9.10;7.35;;;4.40;99.90;;;;;;5020668;28;20030;-70
2023/12/06 11:19:00;;;;;;;12.43;7.70;;;;;;;;;;4962870;28;20042;-70
2023/12/06 11:21:28;;;;;;;10.30;6.97;;;;;;;;;;5021359;28;20077;-70
2023/12/06 11:23:55;;;;;;;8.55;6.75;;;;;;;;;;5019220;28;20073;-70
2023/12/06 11:26:24;;;;;;;11.93;6.80;;;;;;;;;;5008035;28;20068;-70
2023/12/06 11:28:54;;;;;;;8.80;6.13;;;;;;;;;;5022632;28;20049;-70
2023/12/06 11:31:20;;;;;;;10.85;6.35;;;;;;;;;;5015178;28;20495;-70
2023/12/06 11:33:56;;;;;;;9.90;6.25;;;4.10;99.90;;;;;;5019355;28;20061;-70
2023/12/06 11:36:25;;;;;;;9.07;5.80;;;;;;;;;;5024717;28;20072;-70
2023/12/06 11:38:51;;;;;;;8.32;6.20;;;;;;;;;;5022728;28;20100;-70
2023/12/06 11:41:17;;;;;;;9.48;6.13;;;;;;;;;;5025043;28;20073;-70
2023/12/06 11:43:47;;;;;;;9.77;6.50;;;;;;;;;;5026601;28;20049;-70
2023/12/06 11:46:14;;;;;;;10.57;6.10;;;;;;;;;;5028463;28;20045;-70
2023/12/06 11:48:43;;;;;;;14.25;6.35;;;4.20;99.90;;;;;;5015727;28;20110;-70
2023/12/06 11:51:18;;;;;;;7.25;5.72;;;;;;;;;;5030007;28;20050;-70
2023/12/06 11:53:44;;;;;;;8.63;6.07;;;;;;;;;;5015681;28;20041;-70
2023/12/06 11:56:10;;;;;;;9.60;6.30;;;;;;;;;;5019391;28;20037;-70
2023/12/06 11:58:36;;;;;;;9.77;6.32;;;;;;;;;;5021374;28;20081;-70
2023/12/06 12:01:02;;;;;;;9.30;6.05;;;;;;;;;;5016074;28;20073;-70
2023/12/06 12:03:30;;;;;;;8.82;6.25;;;4.40;99.90;;;;;;5013839;28;20080;-69
2023/12/06 12:05:57;;;;;;;13.15;6.30;;;;;;;;;;5025903;28;20077;-70
2023/12/06 12:08:24;;;;;;;9.95;6.53;;;;;;;;;;5003796;28;20041;-70
2023/12/06 12:10:50;;;;;;;9.18;5.90;;;;;;;;;;5027200;28;20568;-70
2023/12/06 12:13:22;;;;;;;10.13;6.60;;;;;;;;;;5015833;28;20088;-70
2023/12/06 12:16:01;;;;;;;7.25;5.50;;;;;;;;;;5015528;28;20506;-70
2023/12/06 12:18:28;;;;;;;10.05;6.13;;;;;;;;;;5039464;28;20438;-71
2023/12/06 12:20:55;;;;;;;7.78;5.88;;;;;;;;;;5002196;28;20033;-71
2023/12/06 12:23:21;;;;;;;7.70;5.45;;;4.30;99.90;;;;;;5022467;28;20056;-71
2023/12/06 12:25:49;;;;;;;8.05;6.10;;;4.50;99.90;;;;;;5030025;28;20041;-71
2023/12/06 12:28:23;;;;;;;10.82;5.68;;;;;;;;;;5021502;28;20052;-71
2023/12/06 12:31:06;;;;;;;9.63;5.90;;;4.60;99.90;;;;;;5029255;28;20041;-71
2023/12/06 12:33:32;;;;;;;12.05;6.15;;;4.50;99.90;;;;;;5012848;28;20121;-69
2023/12/06 12:35:59;;;;;;;7.50;5.38;;;;;;;;;;5027677;28;20041;-71
2023/12/06 12:38:26;;;;;;;17.45;7.15;;;;;;;;;;5012118;28;20034;-71
2023/12/06 12:40:52;;;;;;;12.32;5.60;;;;;;;;;;5026113;28;20516;-71
2023/12/06 12:43:19;;;;;;;8.65;5.50;;;;;;;;;;5017302;28;20079;-71
2023/12/06 12:45:46;;;;;;;9.75;5.82;;;;;;;;;;5015214;28;20056;-71
2023/12/06 12:48:14;;;;;;;8.90;5.70;;;;;;;;;;5011983;28;20045;-70
2023/12/06 12:50:40;;;;;;;10.15;5.70;;;;;;;;;;5017933;28;20121;-70
2023/12/06 12:53:06;;;;;;;7.65;5.80;;;;;;;;;;5031008;28;20046;-70
2023/12/06 12:55:32;;;;;;;10.65;5.90;;;;;;;;;;5015484;28;20121;-70
2023/12/06 12:57:58;;;;;;;8.65;6.07;;;;;;;;;;5015121;28;20481;-70
2023/12/06 13:00:30;;;;;;;9.35;6.00;;;;;;;;;;4998922;28;20123;-70
2023/12/06 13:02:57;;;;;;;8.13;5.80;;;;;;;;;;5032798;28;20124;-70
2023/12/06 13:05:25;;;;;;;9.32;5.88;;;;;;;;;;5018976;28;20053;-70
2023/12/06 13:07:55;;;;;;;9.55;5.88;;;4.50;99.90;;;;;;5035446;28;20048;-71
2023/12/06 13:10:22;;;;;;;9.02;6.35;;;;;;;;;;5018687;28;20057;-71
2023/12/06 13:12:49;;;;;;;8.50;6.10;;;;;;;;;;5018937;28;20045;-70
2023/12/06 13:15:16;;;;;;;10.75;5.88;;;;;;;;;;5035178;28;20136;-70
2023/12/06 13:17:42;;;;;;;7.70;5.78;;;;;;;;;;5035461;28;20107;-70
2023/12/06 13:20:09;;;;;;;7.72;5.53;;;4.80;99.90;;;;;;5035348;28;20041;-70
2023/12/06 13:22:36;;;;;;;6.82;5.63;;;;;;;;;;5018483;28;20053;-71
2023/12/06 13:25:04;;;;;;;8.10;5.95;;;;;;;;;;5035105;28;20076;-71
2023/12/06 13:27:30;;;;;;;10.45;5.90;;;;;;;;;;5035316;28;20049;-71
2023/12/06 13:29:57;;;;;;;9.05;5.70;;;;;;;;;;5035147;28;20051;-71
2023/12/06 13:32:23;;;;;;;6.75;4.53;;;;;;;;;;5034855;28;20071;-71
2023/12/06 13:34:49;;;;;;;7.30;4.85;;;;;;;;;;5034494;28;20505;-71
2023/12/06 13:37:15;;;;;;;6.40;4.28;;;;;;;;;;5034670;28;20513;-71
2023/12/06 13:39:45;;;;;;;7.05;4.10;;;;;;;;;;5034958;28;20128;-71
2023/12/06 13:42:12;;;;;;;5.07;3.95;;;;;;;;;;5034525;28;20498;-71
2023/12/06 13:44:38;;;;;;;6.60;4.72;;;;;;;;;;5034961;28;20442;-71
2023/12/06 13:47:04;;;;;;;7.35;4.07;;;;;;;;;;5034692;28;20108;-71
2023/12/06 13:49:31;;;;;;;8.02;4.20;;;;;;;;;;5034881;28;20040;-71
2023/12/06 13:51:57;;;;;;;7.30;3.92;;;;;;;;;;5034432;28;20077;-71
2023/12/06 13:54:23;;;;;;;5.22;4.50;;;;;;;;;;5034460;28;20076;-71
2023/12/06 13:56:49;;;;;;;10.15;4.47;;;;;;;;;;5018212;28;20048;-71
2023/12/06 13:59:18;;;;;;;8.30;4.50;;;;;;;;;;5034384;28;20124;-71
2023/12/06 14:01:45;;;;;;;8.48;4.20;;;;;;;;;;5034383;28;20156;-71
2023/12/06 14:04:11;;;;;;;8.07;4.88;;;;;;;;;;5034265;28;20052;-70
2023/12/06 14:06:38;;;;;;;8.18;4.70;;;;;;;;;;5034223;28;20038;-70
2023/12/06 14:09:05;;;;;;;6.03;4.47;;;;;;;;;;5018247;28;20049;-70
2023/12/06 14:11:31;;;;;;;6.18;4.63;;;;;;;;;;5034296;28;20494;-71
2023/12/06 14:13:57;;;;;;;5.97;4.55;;;;;;;;;;5033964;28;20045;-71
2023/12/06 14:16:24;;;;;;;8.05;4.05;;;;;;;;;;5033949;28;20037;-71
2023/12/06 14:18:51;;;;;;;6.90;4.10;;;;;;;;;;5034046;28;20053;-71
2023/12/06 14:21:17;;;;;;;7.75;4.50;;;;;;;;;;5034044;28;20080;-70